KUIN/UIN METAR and TAF weather

Enter ICAO airport designator
Station Type Date Time Source
KUIN METAR 2022/07/03 14:54 UTC NOAA

KUIN 031454Z AUTO 13007KT 10SM CLR 26/16 A3010 RMK AO2 SLP188 T02610161 58000


Station Type Date Time Source
KUIN Decoded METAR 2022/07/03 14:54 UTC NOAA

QUINCY MUNI. BALDWIN FIELD, IL, United States (KUIN) 39-56N 091-12W
Jul 03, 2022 - 10:54 AM EDT / 2022.07.03 1454 UTC
Wind: from the SE (130 degrees) at 8 MPH (7 KT):0
Visibility: 10 mile(s):0
Sky conditions: clear
Temperature: 79.0 F (26.1 C)
Dew Point: 61.0 F (16.1 C)
Relative Humidity: 54%
Pressure (altimeter): 30.1 in. Hg (1019 hPa)
Pressure tendency: 0.00 inches (0.0 hPa) lower than three hours ago
ob: KUIN 031454Z AUTO 13007KT 10SM CLR 26/16 A3010 RMK AO2 SLP188 T02610161 58000
cycle: 15

Station Type Date Time Source
KUIN TAF 2022/07/03 12:22 UTC NOAA

TAF KUIN 031120Z 0312/0412 05005KT P6SM FEW250

Example: see airport list